Santa Maria, Argentina
Current Conditions -  °F | °C
As of 8:00 PM on Thursday 27 Nov 2014 (Local Time) from SAZM Reporting Station
Clear Clear  
Wind Chill: 59°   Ceiling: Unl
Heat Index: 59°   Visibility: 5mi
Dew Point: 54°   Wind: 9mph
Humidity: 82%   Direction: 140°SE
Pressure: 30"   Gusts: NA
Location:  37.57°S, 61.87°W
Report Text: SAZM 272300Z 14008KT 8000 NSC 15/12 Q1016
Loading
Personal Weather Stations






























Interactive Weather Map New forecast layout! Learn more

10-Day Weather Forecast

Advertisements
Track Severe Weather on mobile